Главная страница
METAR-TAF:

METAR-TAF

Аэропорты :

Нальчик, Россия

широта: 43-30-46N, долгота: 043-38-12E, высота над уровнем моря: 445 м

Текущие метеонаблюдения

Эта сводка был подготовлена 34 минут назад, в 06:00 UTC
Ветер 2 Узел от северный
Температура 23°C
Влажность 65%
Давление 1013 hPa
Видимость 10 км и более
Отдельные облака

METAR: URMN 210600Z 01001MPS 9999 SCT/// 23/16 Q1013 R24/010070 NOSIG RMK QFE723

Время: 09:34 (06:34 UTC)

Прогноз

Эта сводка был подготовлена 1 час и 34 минут назад, в 05:00 UTC
Прогноз действительный с 21-го 06 UTC до 21-го 15 UTC
Ветер 6 Узел от северо-восточный с порывами до 16 Узел
Видимость 10 км и более
Отдельные облака на высоте 3000 фута, Кучево-дождевые.
временами
С 21-го 09 UTC до 21-го 15 UTC
Рассеянная облачность на высоте 2000 фута, Кучево-дождевые.

TAF: URMN 210500Z 2106/2115 04003G08MPS 9999 SCT030CB TEMPO 2109/2115 BKN020CB

Метеонаблюдения и прогнозы для более 4000 аэропортов (сводки METAR и TAF).

Имеющиеся станции представлены на карте желтыми и красными точками.

Чтобы увидеть название станции, наведите на нее мышь.

Затем щелкните, чтобы увидеть метеонаблюдения и метеопрогнозы.

Управление картой: чтобы увеличить масштаб, щелкните зеленые кнопки с черным крестиком; чтобы уменьшить масштаб, щелкните зеленую кнопку с тире; для просмотра соседних карт щелкайте зеленые стрелки.


METAR-TAF: